Time;durP1;ratioP1;P1;durP2;ratioP2;P2;SDS_P1;SDS_P2;PMS_P1;PMS_P2;Temp;Humidity;BMP_temperature;BMP_pressure;BME280_temperature;BME280_humidity;BME280_pressure;Samples;Min_cycle;Max_cycle;Signal;HPM_P1;HPM_P2
2022/06/01 00:00:11;;;;;;;;;;;;;;;24.91;39.88;98974.22;4467454;32;34575;-82
2022/06/01 00:02:39;;;;;;;;;;;;;;;24.84;40.16;98969.28;4467091;32;34455;-81
2022/06/01 00:05:07;;;;;;;;;;;;;;;24.79;40.29;98966.00;4467189;32;33819;-80
2022/06/01 00:07:34;;;;;;;;;;;;;;;24.81;40.05;98964.13;4473699;32;34812;-81
2022/06/01 00:10:01;;;;;;;;;;;;;;;24.77;40.25;98960.75;4482016;32;34633;-81
2022/06/01 00:12:29;;;;;;;;;;;;;;;24.69;40.37;98970.88;4482945;32;33753;-80
2022/06/01 00:14:57;;;;;;;;;;;;;;;24.70;40.59;98970.84;4482813;32;34338;-82
2022/06/01 00:17:25;;;;;;;;;;;;;;;24.69;40.76;98961.12;4475829;32;34416;-82
2022/06/01 00:19:52;;;;;;;;;;;;;;;24.57;41.05;98961.72;4467012;32;34496;-83
2022/06/01 00:22:19;;;;;;;;;;;;;;;24.58;40.98;98962.59;4466894;32;33971;-81
2022/06/01 00:24:47;;;;;;;;;;;;;;;24.53;41.07;98965.47;4466728;32;34627;-82
2022/06/01 00:27:15;;;;;;;;;;;;;;;24.41;41.12;98958.09;4457427;32;34367;-82
2022/06/01 00:29:42;;;;;;;;;;;;;;;24.49;40.92;98959.44;4459327;32;34360;-81
2022/06/01 00:32:14;;;;;;;;;;;;;;;24.62;40.63;98958.84;4452577;32;33701;-82
2022/06/01 00:34:42;;;;;;;;;;;;;;;24.56;40.77;98954.72;4466857;32;34199;-80
2022/06/01 00:37:10;;;;;;;;;;;;;;;24.49;41.17;98958.59;4478911;32;34458;-81
2022/06/01 00:39:37;;;;;;;;;;;;;;;24.28;41.97;98956.00;4476932;32;35031;-80
2022/06/01 00:42:09;;;;;;;;;;;;;;;24.39;41.94;98958.16;4480522;32;33637;-80
2022/06/01 00:44:36;;;;;;;;;;;;;;;24.44;41.43;98957.97;4468694;32;34259;-80
2022/06/01 00:47:03;;;;;;;;;;;;;;;24.25;41.78;98952.62;4473576;32;33867;-81
2022/06/01 00:49:31;;;;;;;;;;;;;;;24.48;40.76;98951.59;4466760;32;34587;-82
2022/06/01 00:51:58;;;;;;;;;;;;;;;24.54;40.39;98947.75;4453286;32;33436;-82
2022/06/01 00:54:26;;;;;;;;;;;;;;;24.56;40.05;98944.13;4460790;32;35253;-80
2022/06/01 00:56:55;;;;;;;;;;;;;;;24.19;40.96;98943.16;4452436;32;34324;-82
2022/06/01 00:59:25;;;;;;;;;;;;;;;24.39;40.78;98944.06;4461801;32;35364;-81
2022/06/01 01:01:52;;;;;;;;;;;;;;;24.43;40.67;98946.47;4467714;32;33395;-80
2022/06/01 01:04:19;;;;;;;;;;;;;;;24.47;40.58;98949.84;4464417;32;35067;-82
2022/06/01 01:06:47;;;;;;;;;;;;;;;24.54;40.24;98945.97;4460894;32;34110;-82
2022/06/01 01:09:14;;;;;;;;;;;;;;;24.33;40.87;98946.97;4458311;32;34676;-80
2022/06/01 01:11:42;;;;;;;;;;;;;;;24.43;40.76;98940.31;4465912;32;34281;-81
2022/06/01 01:14:10;;;;;;;;;;;;;;;24.47;40.58;98949.84;4466257;32;33976;-80
2022/06/01 01:16:37;;;;;;;;;;;;;;;24.50;40.55;98949.69;4460640;32;35011;-82
2022/06/01 01:19:06;;;;;;;;;;;;;;;24.45;40.47;98951.72;4467492;32;35057;-80
2022/06/01 01:21:40;;;;;;;;;;;;;;;24.45;40.34;98947.28;4469387;32;34761;-80
2022/06/01 01:24:12;;;;;;;;;;;;;;;24.38;40.47;98945.81;4468467;32;33528;-80
2022/06/01 01:26:40;;;;;;;;;;;;;;;24.31;40.83;98959.41;4471138;32;34846;-80
2022/06/01 01:29:09;;;;;;;;;;;;;;;24.34;40.91;98953.97;4471559;32;35265;-80
2022/06/01 01:31:37;;;;;;;;;;;;;;;24.20;41.41;98950.16;4472166;32;33553;-81
2022/06/01 01:34:05;;;;;;;;;;;;;;;24.27;41.55;98951.59;4469100;32;34218;-79
2022/06/01 01:36:38;;;;;;;;;;;;;;;24.28;41.48;98956.00;4478672;32;34013;-81
2022/06/01 01:39:11;;;;;;;;;;;;;;;24.24;41.37;98949.13;4457120;32;35079;-81
2022/06/01 01:41:38;;;;;;;;;;;;;;;24.41;40.82;98950.16;4469282;32;33993;-82
2022/06/01 01:44:21;;;;;;;;;;;;;;;24.45;40.51;98943.78;4471279;32;34334;-81
2022/06/01 01:46:49;;;;;;;;;;;;;;;24.48;40.35;98936.53;4477503;32;34519;-81
2022/06/01 01:49:17;;;;;;;;;;;;;;;24.42;40.52;98942.13;4471703;32;34259;-82
2022/06/01 01:51:44;;;;;;;;;;;;;;;24.42;40.69;98941.25;4483573;32;34185;-80
2022/06/01 01:54:21;;;;;;;;;;;;;;;24.36;41.38;98939.75;4473446;32;33407;-79
2022/06/01 01:57:02;;;;;;;;;;;;;;;24.36;41.63;98938.84;4467820;32;34619;-79
2022/06/01 01:59:36;;;;;;;;;;;;;;;24.20;42.13;98936.94;4460415;32;34414;-82
2022/06/01 02:02:11;;;;;;;;;;;;;;;24.41;41.60;98936.91;4481160;31;33711;-81
2022/06/01 02:07:29;;;;;;;;;;;;;;;24.37;41.96;98932.66;4469027;32;34021;-80
2022/06/01 02:12:43;;;;;;;;;;;;;;;24.49;41.97;98930.28;4456278;32;34357;-79
2022/06/01 02:15:15;;;;;;;;;;;;;;;24.37;42.11;98932.66;4468843;32;34077;-80
2022/06/01 02:17:49;;;;;;;;;;;;;;;24.60;41.53;98929.78;4463106;32;34084;-83
2022/06/01 02:20:23;;;;;;;;;;;;;;;24.56;41.47;98922.91;4454769;32;34110;-82
2022/06/01 02:22:50;;;;;;;;;;;;;;;24.60;41.27;98921.84;4468233;32;34089;-80
2022/06/01 02:25:18;;;;;;;;;;;;;;;24.48;41.82;98925.94;4454866;32;34131;-81
2022/06/01 02:27:46;;;;;;;;;;;;;;;24.42;42.16;98923.56;4458389;32;35260;-79
2022/06/01 02:30:19;;;;;;;;;;;;;;;24.60;42.05;98927.13;4453470;32;34053;-80
2022/06/01 02:32:46;;;;;;;;;;;;;;;24.40;42.76;98933.41;4457185;32;32073;-80
2022/06/01 02:35:15;;;;;;;;;;;;;;;24.52;42.67;98932.81;4467773;32;34043;-80
2022/06/01 02:37:43;;;;;;;;;;;;;;;24.55;42.55;98936.22;4459267;32;35370;-81
2022/06/01 02:40:13;;;;;;;;;;;;;;;24.66;42.37;98929.50;4466790;32;34174;-80
2022/06/01 02:42:44;;;;;;;;;;;;;;;24.67;42.58;98931.22;4458811;32;33689;-80
2022/06/01 02:45:12;;;;;;;;;;;;;;;24.54;43.15;98923.91;4482998;32;34221;-80
2022/06/01 02:47:41;;;;;;;;;;;;;;;24.67;42.96;98931.22;4482669;32;34112;-80
2022/06/01 02:50:10;;;;;;;;;;;;;;;24.71;42.94;98930.12;4469755;32;34969;-81
2022/06/01 02:52:38;;;;;;;;;;;;;;;24.64;43.24;98926.06;4480088;32;34501;-81
2022/06/01 02:55:06;;;;;;;;;;;;;;;24.77;42.92;98928.94;4471945;32;35009;-80
2022/06/01 02:57:33;;;;;;;;;;;;;;;24.68;43.09;98927.63;4469214;32;34267;-80
2022/06/01 03:00:04;;;;;;;;;;;;;;;24.69;43.19;98929.31;4482947;32;34210;-81
2022/06/01 03:02:31;;;;;;;;;;;;;;;24.69;43.55;98924.03;4467576;32;33361;-81
2022/06/01 03:04:58;;;;;;;;;;;;;;;24.75;43.56;98923.72;4467698;32;33911;-80
2022/06/01 03:07:26;;;;;;;;;;;;;;;24.44;44.76;98924.38;4467829;32;33943;-81
2022/06/01 03:09:53;;;;;;;;;;;;;;;24.87;43.74;98927.56;4469525;32;33976;-81
2022/06/01 03:12:20;;;;;;;;;;;;;;;24.97;43.45;98928.00;4479056;32;34505;-81
2022/06/01 03:14:48;;;;;;;;;;;;;;;24.87;43.78;98924.06;4481357;32;33983;-80
2022/06/01 03:17:15;;;;;;;;;;;;;;;24.80;44.16;98922.66;4481721;32;34016;-81
2022/06/01 03:19:42;;;;;;;;;;;;;;;24.82;44.22;98923.44;4470665;32;34072;-82
2022/06/01 03:22:10;;;;;;;;;;;;;;;24.93;43.94;98921.13;4472628;32;33621;-81
2022/06/01 03:24:37;;;;;;;;;;;;;;;25.02;43.95;98919.78;4483038;32;32699;-80
2022/06/01 03:27:04;;;;;;;;;;;;;;;25.04;43.98;98918.78;4472820;32;33925;-81
2022/06/01 03:29:32;;;;;;;;;;;;;;;25.15;43.81;98912.94;4469671;32;34441;-80
2022/06/01 03:32:00;;;;;;;;;;;;;;;25.03;44.01;98913.53;4473786;32;33542;-81
2022/06/01 03:34:30;;;;;;;;;;;;;;;24.86;44.62;98923.22;4479472;32;34337;-80
2022/06/01 03:36:58;;;;;;;;;;;;;;;24.37;46.11;98948.53;4472752;32;35267;-79
2022/06/01 03:39:25;;;;;;;;;;;;;;;24.01;46.76;98965.19;4478690;32;35224;-79
2022/06/01 03:41:52;;;;;;;;;;;;;;;23.62;47.36;98987.19;4473972;32;33491;-79
2022/06/01 03:47:09;;;;;;;;;;;;;;;24.02;46.67;99007.50;4469691;32;34435;-80
2022/06/01 03:49:37;;;;;;;;;;;;;;;23.49;48.34;99002.72;4479775;32;34268;-83
2022/06/01 03:52:04;;;;;;;;;;;;;;;23.87;47.60;99002.91;4468592;32;32987;-82
2022/06/01 03:54:32;;;;;;;;;;;;;;;24.02;47.42;99006.66;4482930;32;34816;-81
2022/06/01 03:57:00;;;;;;;;;;;;;;;24.31;46.95;99001.81;4471767;32;34927;-81
2022/06/01 03:59:28;;;;;;;;;;;;;;;23.97;47.84;99004.19;4469904;32;34501;-79
2022/06/01 04:01:59;;;;;;;;;;;;;;;24.21;47.58;98996.94;4467141;32;33280;-81
2022/06/01 04:04:26;;;;;;;;;;;;;;;24.01;48.04;98989.03;4458267;32;34871;-82
2022/06/01 04:06:53;;;;;;;;;;;;;;;23.96;47.98;98986.59;4478101;32;34212;-82
2022/06/01 04:09:21;;;;;;;;;;;;;;;24.21;47.64;98986.34;4481167;32;34283;-83
2022/06/01 04:11:51;;;;;;;;;;;;;;;24.37;47.47;98986.50;4467100;32;33553;-81
2022/06/01 04:14:19;;;;;;;;;;;;;;;24.75;46.54;98992.66;4467615;32;34130;-81
2022/06/01 04:16:47;;;;;;;;;;;;;;;24.82;46.36;98997.69;4459230;32;34904;-82
2022/06/01 04:19:14;;;;;;;;;;;;;;;25.04;45.71;98993.06;4472695;32;35326;-79
2022/06/01 04:21:43;;;;;;;;;;;;;;;25.11;45.73;98988.31;4469242;32;34330;-82
2022/06/01 04:24:12;;;;;;;;;;;;;;;25.19;45.46;98996.75;4468632;32;32975;-80
2022/06/01 04:26:40;;;;;;;;;;;;;;;25.38;45.13;98991.38;4481973;32;34492;-80
2022/06/01 04:29:07;;;;;;;;;;;;;;;25.29;45.42;98997.16;4482493;32;35209;-79
2022/06/01 04:31:35;;;;;;;;;;;;;;;25.26;45.65;98997.31;4464595;32;33608;-81
2022/06/01 04:34:03;;;;;;;;;;;;;;;25.33;45.60;99004.03;4453969;32;33546;-82
2022/06/01 04:36:31;;;;;;;;;;;;;;;24.85;46.59;99002.81;4476669;32;34550;-80
2022/06/01 04:38:58;;;;;;;;;;;;;;;24.80;46.97;99007.50;4482569;32;34892;-81
2022/06/01 04:41:26;;;;;;;;;;;;;;;24.83;46.91;99000.25;4475346;32;34066;-83
2022/06/01 04:43:53;;;;;;;;;;;;;;;25.27;45.88;99005.22;4467548;32;34656;-83
2022/06/01 04:46:22;;;;;;;;;;;;;;;25.33;46.16;99010.19;4480794;32;34113;-80
2022/06/01 04:48:50;;;;;;;;;;;;;;;25.91;45.36;99001.06;4482007;32;34044;-80
2022/06/01 04:51:19;;;;;;;;;;;;;;;26.53;43.82;98986.22;4472713;32;33752;-79
2022/06/01 04:53:47;;;;;;;;;;;;;;;26.29;44.65;99000.81;4468338;32;34312;-81
2022/06/01 04:56:14;;;;;;;;;;;;;;;26.42;43.97;99001.87;4468673;32;34199;-81
2022/06/01 04:58:41;;;;;;;;;;;;;;;26.46;43.39;98987.50;4476914;32;34276;-79
2022/06/01 05:01:09;;;;;;;;;;;;;;;26.03;44.63;99010.22;4473523;32;33826;-81
2022/06/01 05:03:36;;;;;;;;;;;;;;;26.18;44.06;99004.09;4468794;32;34249;-82
2022/06/01 05:06:03;;;;;;;;;;;;;;;25.83;45.21;98997.97;4478356;32;34368;-78
2022/06/01 05:08:31;;;;;;;;;;;;;;;25.28;46.57;99000.75;4480331;32;34578;-79
2022/06/01 05:10:58;;;;;;;;;;;;;;;24.92;47.16;98999.78;4483859;32;33597;-80
2022/06/01 05:13:26;;;;;;;;;;;;;;;25.86;44.79;98997.81;4464184;32;35072;-83
2022/06/01 05:15:54;;;;;;;;;;;;;;;25.06;46.39;98999.12;4475718;32;34285;-80
2022/06/01 05:18:22;;;;;;;;;;;;;;;25.79;44.95;99012.34;4463552;32;34609;-84
2022/06/01 05:20:49;;;;;;;;;;;;;;;25.18;46.20;99006.50;4470553;32;33422;-79
2022/06/01 05:23:17;;;;;;;;;;;;;;;25.44;45.80;99015.81;4475857;32;34290;-79
2022/06/01 05:25:46;;;;;;;;;;;;;;;25.49;44.86;99020.91;4466958;32;34346;-82
2022/06/01 05:28:16;;;;;;;;;;;;;;;24.81;47.03;99018.00;4468572;31;34120;-79
2022/06/01 05:30:43;;;;;;;;;;;;;;;25.02;46.86;99033.84;4474035;32;33422;-80
2022/06/01 05:33:10;;;;;;;;;;;;;;;24.79;47.46;99032.28;4475883;32;33903;-80
2022/06/01 05:35:38;;;;;;;;;;;;;;;23.98;49.64;99042.09;4478291;31;34546;-80
2022/06/01 05:38:06;;;;;;;;;;;;;;;24.44;48.73;99040.09;4484000;32;34303;-83
2022/06/01 05:40:33;;;;;;;;;;;;;;;24.31;48.58;99038.91;4472032;32;33669;-80
2022/06/01 05:43:06;;;;;;;;;;;;;;;23.55;50.07;99043.94;4481540;32;34156;-81
2022/06/01 05:45:33;;;;;;;;;;;;;;;23.97;48.82;99051.00;4469818;32;34317;-80
2022/06/01 05:48:01;;;;;;;;;;;;;;;23.92;49.37;99051.19;4483622;32;34593;-84
2022/06/01 05:50:28;;;;;;;;;;;;;;;21.97;54.19;99068.50;4483753;32;33642;-80
2022/06/01 05:52:55;;;;;;;;;;;;;;;23.49;50.42;99055.66;4483631;32;34033;-80
2022/06/01 05:55:23;;;;;;;;;;;;;;;22.98;51.74;99063.91;4483602;32;35221;-80
2022/06/01 05:57:50;;;;;;;;;;;;;;;22.40;53.65;99066.97;4483912;32;35343;-80
2022/06/01 06:00:17;;;;;;;;;;;;;;;23.57;50.39;99054.47;4483703;32;33685;-81
2022/06/01 06:02:45;;;;;;;;;;;;;;;23.89;49.42;99066.34;4483689;32;34818;-83
2022/06/01 06:07:59;;;;;;;;;;;;;;;23.26;51.12;99058.34;4471611;32;34299;-80
2022/06/01 06:10:27;;;;;;;;;;;;;;;24.11;48.80;99056.53;4483813;31;33413;-84
2022/06/01 06:12:54;;;;;;;;;;;;;;;23.93;49.27;99054.69;4469644;32;34249;-81
2022/06/01 06:15:22;;;;;;;;;;;;;;;24.01;49.16;99061.38;4483477;32;34211;-80
2022/06/01 06:17:53;;;;;;;;;;;;;;;24.38;48.13;99065.03;4484052;32;34352;-84
2022/06/01 06:20:20;;;;;;;;;;;;;;;23.58;50.09;99064.97;4469595;32;34573;-81
2022/06/01 06:22:48;;;;;;;;;;;;;;;23.15;51.42;99061.47;4483614;32;35043;-80
2022/06/01 06:25:15;;;;;;;;;;;;;;;22.94;51.91;99067.59;4483999;32;34506;-85
2022/06/01 06:27:42;;;;;;;;;;;;;;;22.46;53.43;99082.56;4483706;32;35270;-84
2022/06/01 06:30:10;;;;;;;;;;;;;;;23.47;50.87;99075.16;4483314;32;34318;-80
2022/06/01 06:32:37;;;;;;;;;;;;;;;23.11;51.71;99077.50;4483584;32;34912;-80
2022/06/01 06:35:05;;;;;;;;;;;;;;;22.70;52.72;99088.72;4483581;32;35082;-80
2022/06/01 06:37:32;;;;;;;;;;;;;;;23.01;52.01;99080.50;4483455;32;34019;-80
2022/06/01 06:39:59;;;;;;;;;;;;;;;24.02;49.15;99091.41;4483652;32;33103;-80
2022/06/01 06:42:27;;;;;;;;;;;;;;;23.45;51.10;99087.56;4483455;32;33826;-80
2022/06/01 06:44:54;;;;;;;;;;;;;;;23.45;50.50;99087.56;4483259;32;34894;-83
2022/06/01 06:47:22;;;;;;;;;;;;;;;23.15;51.58;99098.50;4483352;32;34301;-85
2022/06/01 06:49:49;;;;;;;;;;;;;;;22.89;52.45;99104.75;4469341;32;33679;-80
2022/06/01 06:52:16;;;;;;;;;;;;;;;23.20;52.00;99098.31;4483351;32;34783;-81
2022/06/01 06:54:44;;;;;;;;;;;;;;;23.60;50.34;99094.91;4483465;31;35336;-80
2022/06/01 06:57:11;;;;;;;;;;;;;;;23.57;50.60;99092.38;4483598;31;34606;-84
2022/06/01 06:59:39;;;;;;;;;;;;;;;23.19;51.62;99100.09;4483459;32;33366;-84
2022/06/01 07:02:06;;;;;;;;;;;;;;;23.82;50.34;99101.97;4483381;32;34177;-80
2022/06/01 07:04:35;;;;;;;;;;;;;;;23.20;51.80;99100.94;4483657;32;33779;-80
2022/06/01 07:07:03;;;;;;;;;;;;;;;24.15;49.64;99103.16;4483631;32;34840;-80
2022/06/01 07:09:30;;;;;;;;;;;;;;;23.67;51.00;99106.97;4483359;32;32687;-80
2022/06/01 07:11:57;;;;;;;;;;;;;;;23.46;51.18;99116.63;4469284;32;34776;-80
2022/06/01 07:14:25;;;;;;;;;;;;;;;23.20;51.64;99122.97;4483200;32;33893;-81
2022/06/01 07:16:52;;;;;;;;;;;;;;;22.28;54.15;99136.94;4483276;32;34001;-80
2022/06/01 07:19:19;;;;;;;;;;;;;;;23.02;52.48;99131.59;4483418;31;33496;-81
2022/06/01 07:21:47;;;;;;;;;;;;;;;22.44;54.64;99136.41;4483397;32;34871;-84
2022/06/01 07:24:15;;;;;;;;;;;;;;;22.89;53.21;99133.84;4483385;31;35255;-84
2022/06/01 07:26:43;;;;;;;;;;;;;;;22.92;52.36;99132.87;4483278;32;34559;-82
2022/06/01 07:29:12;;;;;;;;;;;;;;;23.30;51.68;99124.31;4483038;32;34439;-83
2022/06/01 07:31:39;;;;;;;;;;;;;;;22.85;53.35;99128.72;4483523;32;34039;-81
2022/06/01 07:34:07;;;;;;;;;;;;;;;23.40;52.08;99119.50;4482998;32;34467;-81
2022/06/01 07:36:37;;;;;;;;;;;;;;;23.85;50.69;99123.87;4483209;32;34583;-80
2022/06/01 07:47:29;;;;;;;;;;;;;;;24.34;49.23;99123.56;4483153;32;35194;-82
2022/06/01 07:50:16;;;;;;;;;;;;;;;24.37;48.59;99128.72;4483070;32;33323;-82
2022/06/01 07:53:06;;;;;;;;;;;;;;;23.91;49.32;99123.63;4483025;32;34854;-81
2022/06/01 07:55:34;;;;;;;;;;;;;;;24.97;47.19;99126.91;4468877;32;34382;-83
2022/06/01 07:58:01;;;;;;;;;;;;;;;23.84;50.40;99134.53;4482934;32;34273;-80
2022/06/01 08:00:29;;;;;;;;;;;;;;;24.62;47.60;99139.97;4468566;32;34343;-81
2022/06/01 08:02:57;;;;;;;;;;;;;;;24.01;49.09;99137.31;4482815;31;35125;-81
2022/06/01 08:05:24;;;;;;;;;;;;;;;25.11;46.47;99135.06;4482897;32;34232;-84
2022/06/01 08:07:52;;;;;;;;;;;;;;;23.81;49.29;99134.66;4468527;32;35232;-82
2022/06/01 08:10:20;;;;;;;;;;;;;;;24.74;47.54;99147.37;4482795;32;34420;-82
2022/06/01 08:15:41;;;;;;;;;;;;;;;24.26;48.61;99142.44;4480941;32;35217;-80
2022/06/01 08:18:08;;;;;;;;;;;;;;;24.74;47.93;99149.19;4482734;32;34130;-80
2022/06/01 08:20:36;;;;;;;;;;;;;;;25.27;46.09;99137.00;4482862;32;34431;-81
2022/06/01 08:23:04;;;;;;;;;;;;;;;25.68;46.05;99143.84;4482371;32;35054;-85
2022/06/01 08:25:31;;;;;;;;;;;;;;;25.65;44.89;99146.66;4482327;32;35151;-81
2022/06/01 08:27:59;;;;;;;;;;;;;;;25.50;43.84;99144.75;4482525;32;34613;-82
2022/06/01 08:30:27;;;;;;;;;;;;;;;25.33;44.52;99156.16;4484403;32;34550;-85
2022/06/01 08:32:54;;;;;;;;;;;;;;;25.03;45.36;99161.06;4484503;32;34656;-85
2022/06/01 08:35:26;;;;;;;;;;;;;;;25.29;46.02;99165.19;4470125;32;34125;-80
2022/06/01 08:37:54;;;;;;;;;;;;;;;25.35;45.68;99166.72;4470271;32;35202;-81
2022/06/01 08:40:22;;;;;;;;;;;;;;;25.62;44.65;99160.06;4484352;32;33681;-82
2022/06/01 08:42:52;;;;;;;;;;;;;;;25.28;45.21;99170.59;4470429;32;33700;-80
2022/06/01 08:45:22;;;;;;;;;;;;;;;24.32;47.83;99165.13;4470268;32;35032;-83
2022/06/01 08:47:50;;;;;;;;;;;;;;;24.47;47.20;99180.41;4470465;32;33626;-80
2022/06/01 08:50:21;;;;;;;;;;;;;;;24.80;46.75;99169.22;4470673;32;33679;-81
2022/06/01 08:52:49;;;;;;;;;;;;;;;25.84;46.04;99164.34;4470290;31;33737;-80
2022/06/01 08:55:17;;;;;;;;;;;;;;;25.13;44.86;99172.16;4469876;32;34155;-80
2022/06/01 08:57:50;;;;;;;;;;;;;;;25.96;42.97;99164.59;4484447;32;34520;-81
2022/06/01 09:00:18;;;;;;;;;;;;;;;26.08;43.25;99159.59;4470122;32;33738;-81
2022/06/01 09:02:48;;;;;;;;;;;;;;;26.18;43.04;99163.50;4469645;31;34924;-81
2022/06/01 09:05:30;;;;;;;;;;;;;;;26.33;41.93;99161.84;4484015;32;34258;-81
2022/06/01 09:08:04;;;;;;;;;;;;;;;25.50;43.90;99168.63;4469903;32;35251;-80
2022/06/01 09:10:50;;;;;;;;;;;;;;;27.15;41.13;99178.75;4483938;32;34562;-81
2022/06/01 09:13:23;;;;;;;;;;;;;;;26.61;41.31;99171.94;4483842;32;34093;-81
2022/06/01 09:16:10;;;;;;;;;;;;;;;26.49;40.82;99169.94;4484317;32;34799;-81
2022/06/01 09:18:48;;;;;;;;;;;;;;;26.55;40.48;99174.91;4470314;32;35145;-81
2022/06/01 09:24:06;;;;;;;;;;;;;;;27.00;41.39;99178.72;4484189;32;34353;-81
2022/06/01 09:26:33;;;;;;;;;;;;;;;27.37;40.15;99182.91;4484496;32;34570;-81
2022/06/01 09:29:02;;;;;;;;;;;;;;;26.06;40.58;99175.59;4484086;32;33710;-81
2022/06/01 09:31:37;;;;;;;;;;;;;;;26.84;39.76;99168.06;4484259;32;34346;-82
2022/06/01 09:34:14;;;;;;;;;;;;;;;25.39;41.66;99177.09;4469780;32;34560;-81
2022/06/01 09:36:49;;;;;;;;;;;;;;;25.62;40.73;99176.00;4484297;32;34290;-81
2022/06/01 09:39:17;;;;;;;;;;;;;;;26.01;40.82;99185.59;4483721;32;34416;-81
2022/06/01 09:41:44;;;;;;;;;;;;;;;26.26;41.43;99176.41;4483607;32;33132;-83
2022/06/01 09:44:14;;;;;;;;;;;;;;;26.39;41.71;99183.66;4469886;32;34191;-81
2022/06/01 09:46:47;;;;;;;;;;;;;;;26.88;38.50;99193.53;4484054;31;34110;-81
2022/06/01 09:49:25;;;;;;;;;;;;;;;27.55;38.35;99181.03;4484128;32;34841;-81
2022/06/01 09:52:12;;;;;;;;;;;;;;;27.48;38.69;99180.50;4470153;32;33550;-81
2022/06/01 09:54:44;;;;;;;;;;;;;;;26.82;39.28;99183.22;4469804;32;33487;-81
2022/06/01 09:57:18;;;;;;;;;;;;;;;26.87;39.55;99178.53;4469756;31;34859;-80
2022/06/01 10:06:25;;;;;;;;;;;;;;;27.00;38.72;99189.34;4483786;31;34240;-81
2022/06/01 10:08:23;;;;;;;;;;;;;;;27.32;36.94;99191.16;4470574;32;34890;-81
2022/06/01 10:10:58;;;;;;;;;;;;;;;27.01;37.16;99186.63;4483806;32;34256;-81
2022/06/01 10:13:31;;;;;;;;;;;;;;;26.68;38.00;99183.97;4483842;31;34581;-81
2022/06/01 10:16:00;;;;;;;;;;;;;;;27.21;37.33;99182.03;4469583;32;34414;-81
2022/06/01 10:18:28;;;;;;;;;;;;;;;26.80;38.71;99178.00;4469532;32;34915;-81
2022/06/01 10:20:56;;;;;;;;;;;;;;;27.82;37.07;99181.28;4484153;32;34183;-80
2022/06/01 10:23:23;;;;;;;;;;;;;;;26.82;38.28;99185.87;4483764;32;32904;-82
2022/06/01 10:25:55;;;;;;;;;;;;;;;26.50;38.12;99188.44;4483704;32;35034;-81
2022/06/01 10:28:24;;;;;;;;;;;;;;;27.51;36.34;99174.16;4469338;32;35188;-81
2022/06/01 10:31:11;;;;;;;;;;;;;;;27.68;37.26;99181.16;4483535;32;34649;-81
2022/06/01 10:33:40;;;;;;;;;;;;;;;28.13;37.31;99172.34;4483787;32;33528;-85
2022/06/01 10:36:11;;;;;;;;;;;;;;;27.48;36.63;99193.81;4469326;32;34629;-80
2022/06/01 10:38:57;;;;;;;;;;;;;;;27.53;37.46;99202.38;4469534;32;34592;-86
2022/06/01 10:41:28;;;;;;;;;;;;;;;28.19;35.12;99184.47;4483628;32;34407;-81
2022/06/01 10:44:05;;;;;;;;;;;;;;;27.25;36.45;99189.78;4483712;32;33023;-81
2022/06/01 10:46:38;;;;;;;;;;;;;;;27.63;34.39;99178.78;4469296;32;35072;-80
2022/06/01 10:49:26;;;;;;;;;;;;;;;27.75;35.18;99191.41;4483365;32;35322;-81
2022/06/01 10:52:00;;;;;;;;;;;;;;;28.04;35.56;99184.41;4482848;32;35112;-81
2022/06/01 10:54:39;;;;;;;;;;;;;;;28.06;33.82;99190.50;4470228;32;33542;-80
2022/06/01 10:57:08;;;;;;;;;;;;;;;27.30;34.59;99187.69;4483473;32;34207;-80
2022/06/01 10:59:35;;;;;;;;;;;;;;;26.89;35.43;99195.25;4469211;32;34060;-85
2022/06/01 11:02:10;;;;;;;;;;;;;;;28.27;32.91;99188.38;4469196;32;33505;-80
2022/06/01 11:04:44;;;;;;;;;;;;;;;29.06;31.79;99185.37;4468966;32;33344;-81
2022/06/01 11:07:14;;;;;;;;;;;;;;;29.15;32.08;99188.41;4482727;32;33731;-83
2022/06/01 11:09:56;;;;;;;;;;;;;;;28.84;32.84;99191.16;4483421;32;34544;-83
2022/06/01 11:12:50;;;;;;;;;;;;;;;28.38;32.77;99184.25;4469456;32;34444;-83
2022/06/01 11:15:30;;;;;;;;;;;;;;;28.16;31.97;99184.63;4459179;32;34115;-82
2022/06/01 11:18:02;;;;;;;;;;;;;;;28.22;32.89;99184.25;4483460;32;34015;-80
2022/06/01 11:20:45;;;;;;;;;;;;;;;28.75;32.59;99185.50;4469012;32;34577;-80
2022/06/01 11:23:24;;;;;;;;;;;;;;;28.34;33.01;99184.41;4483463;32;34197;-81
2022/06/01 11:25:58;;;;;;;;;;;;;;;29.02;32.80;99183.84;4469304;32;33252;-80
2022/06/01 11:28:44;;;;;;;;;;;;;;;30.06;30.29;99163.72;4469193;32;34955;-81
2022/06/01 11:31:11;;;;;;;;;;;;;;;28.91;32.89;99180.97;4483195;32;34374;-81
2022/06/01 11:33:57;;;;;;;;;;;;;;;28.89;31.55;99182.84;4483213;32;35073;-86
2022/06/01 11:36:27;;;;;;;;;;;;;;;28.33;32.50;99181.81;4483298;32;34383;-84
2022/06/01 11:38:56;;;;;;;;;;;;;;;28.13;32.90;99178.53;4483514;32;33944;-80
2022/06/01 11:41:25;;;;;;;;;;;;;;;28.70;33.51;99180.47;4468980;32;34175;-81
2022/06/01 11:43:56;;;;;;;;;;;;;;;29.91;29.62;99167.41;4483518;32;34221;-81
2022/06/01 11:46:32;;;;;;;;;;;;;;;29.79;30.67;99166.41;4483213;32;32770;-82
2022/06/01 11:49:29;;;;;;;;;;;;;;;28.83;31.60;99164.56;4482901;32;34027;-81
2022/06/01 11:52:01;;;;;;;;;;;;;;;29.95;31.27;99163.56;4469901;32;35197;-80
2022/06/01 11:54:33;;;;;;;;;;;;;;;29.74;31.06;99171.22;4468694;32;34624;-80
2022/06/01 11:57:17;;;;;;;;;;;;;;;30.06;30.50;99165.53;4468988;32;33420;-81
2022/06/01 11:59:46;;;;;;;;;;;;;;;30.23;30.61;99167.06;4468881;32;34096;-81
2022/06/01 12:02:41;;;;;;;;;;;;;;;29.15;31.08;99175.06;4482646;32;34381;-81
2022/06/01 12:05:09;;;;;;;;;;;;;;;28.59;31.83;99178.44;4482619;32;35387;-81
2022/06/01 12:07:38;;;;;;;;;;;;;;;30.09;29.32;99164.47;4482979;32;33424;-84
2022/06/01 12:10:05;;;;;;;;;;;;;;;28.69;30.38;99168.09;4468609;32;35173;-85
2022/06/01 12:12:32;;;;;;;;;;;;;;;28.96;30.56;99176.19;4482886;32;34346;-87
2022/06/01 12:15:04;;;;;;;;;;;;;;;29.72;29.23;99164.25;4482737;32;35250;-83
2022/06/01 12:17:35;;;;;;;;;;;;;;;29.69;29.89;99172.47;4468577;32;34255;-81
2022/06/01 12:20:12;;;;;;;;;;;;;;;30.00;28.25;99171.28;4468555;32;34874;-80
2022/06/01 12:28:33;;;;;;;;;;;;;;;30.86;28.50;99166.28;4479562;31;33084;-81
2022/06/01 12:31:14;;;;;;;;;;;;;;;30.84;28.03;99168.22;4470473;31;34722;-81
2022/06/01 12:34:01;;;;;;;;;;;;;;;28.80;30.82;99168.28;4483279;31;34568;-81
2022/06/01 12:36:30;;;;;;;;;;;;;;;30.05;28.64;99162.00;4483178;31;33894;-81
2022/06/01 12:38:58;;;;;;;;;;;;;;;30.74;28.77;99162.66;4483123;31;33489;-82
2022/06/01 12:41:26;;;;;;;;;;;;;;;30.68;27.17;99162.19;4497408;31;34998;-82
2022/06/01 12:43:57;;;;;;;;;;;;;;;30.34;27.47;99155.66;4475974;32;34146;-81
2022/06/01 12:46:29;;;;;;;;;;;;;;;30.58;28.03;99166.50;4467490;32;34151;-83
2022/06/01 12:49:15;;;;;;;;;;;;;;;30.27;27.56;99155.25;4467298;32;34330;-82
2022/06/01 12:51:43;;;;;;;;;;;;;;;31.14;25.09;99154.47;4481724;32;34311;-81
2022/06/01 12:54:11;;;;;;;;;;;;;;;30.70;26.64;99145.06;4481406;32;34124;-84
2022/06/01 12:56:46;;;;;;;;;;;;;;;30.85;27.17;99148.50;4481451;32;34398;-80
2022/06/01 12:59:14;;;;;;;;;;;;;;;29.65;28.75;99138.91;4455932;32;864231;-81
2022/06/01 13:01:41;;;;;;;;;;;;;;;30.63;27.06;99145.59;4467013;32;34815;-81
2022/06/01 13:04:08;;;;;;;;;;;;;;;30.71;25.66;99140.56;4481110;32;34964;-83
2022/06/01 13:06:39;;;;;;;;;;;;;;;29.62;28.04;99144.44;4465355;32;34025;-80
2022/06/01 13:09:07;;;;;;;;;;;;;;;29.33;28.62;99139.16;4464601;32;33274;-82
2022/06/01 13:11:36;;;;;;;;;;;;;;;29.86;28.14;99142.81;4466572;32;35076;-82
2022/06/01 13:14:04;;;;;;;;;;;;;;;29.84;26.87;99141.19;4481914;32;33710;-84
2022/06/01 13:16:39;;;;;;;;;;;;;;;30.09;26.85;99140.41;4480131;32;34604;-83
2022/06/01 13:19:17;;;;;;;;;;;;;;;30.24;26.36;99137.56;4492359;31;33354;-81
2022/06/01 13:21:46;;;;;;;;;;;;;;;29.69;27.18;99140.41;4475226;31;35585;-84
2022/06/01 13:24:13;;;;;;;;;;;;;;;30.07;26.47;99132.47;4467232;32;35051;-83
2022/06/01 13:26:42;;;;;;;;;;;;;;;30.35;24.47;99141.34;4484259;32;34490;-81
2022/06/01 13:29:16;;;;;;;;;;;;;;;30.14;25.18;99138.28;4469628;32;33239;-81
2022/06/01 13:31:45;;;;;;;;;;;;;;;30.42;25.05;99134.56;4483841;32;35239;-81
2022/06/01 13:34:23;;;;;;;;;;;;;;;30.37;24.36;99137.56;4475852;31;34148;-81
2022/06/01 13:36:51;;;;;;;;;;;;;;;31.35;23.93;99129.78;4485605;31;35184;-82
2022/06/01 13:39:26;;;;;;;;;;;;;;;31.27;23.62;99119.59;4485626;31;33782;-82